Clover Valley, Nevada Weather observations

Data are for 10 minute period ending at time listed.
 Day   Time   Solar   Ave.   Ave.  Ave.  Vector  Max.   Baro.   Total    
  of    of     Rad.   Air    Rel.  Wind   Wind   Wind  Press.  Precip.   
Year   Day            Temp.  Hum.  Speed  Dir.   Gust                    
2014   (PST)  Kw/m2    F      %     mph   deg.    mph    mb.     in.     
-------------------------------------------------------------------------
 352   12:20   0.60   41.8    50    1.8   324     4.8   827.5    0.00 
 352   12:30   0.61   40.0    52    4.8   354     8.4   827.4    0.00 
 352   12:40   0.53   38.5    54    6.2   358    10.4   827.4    0.00 
 352   12:50   0.38   38.0    56    5.1   354     7.2   827.4    0.00 
 352   13:00   0.40   38.2    56    5.6   351     7.5   827.4    0.00 
 352   13:10   0.32   38.2    56    4.9   313     8.5   827.4    0.00 
 352   13:20   0.20   37.9    56    3.5   326     6.2   827.4    0.00 
 352   13:30   0.14   37.7    57    3.4   318     5.8   827.4    0.00 
 352   13:40   0.13   37.4    57    3.8   337     5.1   827.4    0.00 
 352   13:50   0.20   37.9    57    2.7   344     4.2   827.4    0.00 
 352   14:00   0.29   39.1    54    3.5   309     5.6   827.4    0.00 
 352   14:10   0.17   38.9    54    2.2   278     6.1   827.5    0.00 
 352   14:20   0.12   38.8    55    2.1   302     4.2   827.5    0.00 
 352   14:30   0.09   38.3    55    2.4   320     4.3   827.5    0.00 
 352   14:40   0.07   38.0    56    1.6   326     2.9   827.6    0.00 
 352   14:50   0.00   38.0    56    2.4   314     4.0   827.7    0.00 
 352   15:00   0.02   37.9    57    2.4   336     3.4   827.8    0.00 
 352   15:10   0.03   38.3    56    3.0   285     6.4   827.8    0.00 
 352   15:20   0.10   38.9    55    5.8   258     8.5   827.8    0.00 
 352   15:30   0.07   38.8    55    6.1   262     9.4   827.8    0.00 
 352   15:40   0.05   38.5    55    8.9   266    13.0   827.8    0.00 
 352   15:50   0.03   38.0    56    9.9   254    14.2   827.8    0.00 
 352   16:00   0.01   37.5    56    9.7   254    13.5   827.8    0.00 
 352   16:10   0.01   36.7    58    7.8   246    13.7   827.8    0.00 
 352   16:20   0.00   36.7    57    8.3   254    14.0   827.9    0.00 
 352   16:30   0.00   36.8    56    7.7   254    11.4   828.0    0.00 
 352   16:40   0.00   36.8    56    8.2   264    12.1   828.1    0.00 
 352   16:50   0.00   36.5    57    6.7   273     9.3   828.2    0.00 
 352   17:00   0.00   35.9    59    4.9   274     7.3   828.2    0.00 
 352   17:10   0.00   35.7    61    4.3   280     6.1   828.3    0.00 
 352   17:20   0.00   34.5    66    2.7   295     3.7   828.3    0.00 
 352   17:30   0.00   34.2    68    2.8   304     4.9   828.4    0.00 
 352   17:40   0.00   33.2    70    3.1    53     4.9   828.5    0.00 
 352   17:50   0.00   32.1    72    3.6    60     5.8   828.7    0.00 
 352   18:00   0.00   32.0    72    4.5    45     6.1   828.7    0.00 
 352   18:10   0.00   31.2    74    2.3    25     3.8   828.8    0.00 
 352   18:20   0.00   30.5    77    1.7   105     4.2   828.9    0.00 
 352   18:30   0.00   31.1    77    1.1   249     2.5   829.0    0.00 
 352   18:40   0.00   30.8    77    3.2   180     5.1   829.1    0.00 
 352   18:50   0.00   30.3    80    2.1   290     3.7   829.1    0.00 
 352   19:00   0.00   30.4    80    1.6   240     3.2   829.2    0.00 
 352   19:10   0.00   30.3    82    2.5   237     3.9   829.2    0.00 
 352   19:20   0.00   29.3    82    3.8   263     4.7   829.3    0.00 
 352   19:30   0.00   29.7    85    3.3   248     4.2   829.3    0.00 
 352   19:40   0.00   29.4    83    2.1   205     4.4   829.2    0.00 
 352   19:50   0.00   28.6    85    4.0   170     5.5   829.1    0.00 
 352   20:00   0.00   27.7    85    0.9   223     2.9   829.0    0.00 
 352   20:10   0.00   27.6    88    1.3   168     1.9   828.9    0.00 
 352   20:20   0.00   28.1    88    2.2   118     2.9   828.7    0.00 
 352   20:30   0.00   27.1    89    0.8   160     1.8   828.8    0.00 
 352   20:40   0.00   26.8    91    0.3   246     1.8   829.0    0.00 
 352   20:50   0.00   24.8    90    2.1   358     3.5   829.1    0.00 
 352   21:00   0.00   26.2    91    2.7    51     3.5   829.1    0.00 
 352   21:10   0.00   24.4    88    3.1    35     4.2   829.1    0.00 
 352   21:20   0.00   24.6    93    3.1    58     4.5   829.0    0.00 
 352   21:30   0.00   22.2    89    3.3    82     5.3   829.1    0.00 
 352   21:40   0.00   20.3    92    2.4   349     6.1   829.3    0.00 
 352   21:50   0.00   19.8    94    3.0    25     4.2   829.2    0.00 
 352   22:00   0.00   19.3    94    2.5   344     3.9   829.2    0.00 
 352   22:10   0.00   19.5    95    1.8   275     5.6   829.2    0.00 
 352   22:20   0.00   20.0    95    3.8   278     7.5   829.4    0.00 
 352   22:30   0.00   20.7    95    2.6   289     6.3   829.3    0.00 
 352   22:40   0.00   20.4    94    1.3     0     3.9   829.2    0.00 
 352   22:50   0.00   19.7    94    1.1   354     3.1   829.2    0.00 
 352   23:00   0.00   18.7    92    1.8    74     3.9   829.3    0.00 
 352   23:10   0.00   18.4    94    2.0    77     3.7   829.2    0.00 
 352   23:20   0.00   19.2    94    1.8   351     5.6   829.2    0.00 
 352   23:30   0.00   18.8    93    2.9   344     6.0   829.2    0.00 
 352   23:40   0.00   17.8    92    3.1    15     5.5   829.2    0.00 
 352   23:50   0.00   18.2    94    2.6    20     3.7   829.2    0.00 
 353    0:00   0.00   18.2    93    2.4     9     3.7   829.2    0.00 
 353    0:10   0.00   17.8    93    1.4   337     3.9   829.1    0.00 
 353    0:20   0.00   16.7    92    4.0   290     5.8   829.1    0.00 
 353    0:30   0.00   16.3    94    3.2   331     5.2   829.0    0.00 
 353    0:40   0.00   16.4    94    3.4   332     3.9   829.0    0.00 
 353    0:50   0.00   16.4    94    2.3     6     3.1   828.9    0.00 
 353    1:00   0.00   16.6    94    2.0   350     2.9   828.9    0.00 
 353    1:10   0.00   16.2    93    3.1   327     5.6   828.8    0.00 
 353    1:20   0.00   16.6    94    4.3   292     5.5   829.0    0.00 
 353    1:30   0.00   17.1    93    2.0   323     4.2   828.9    0.00 
 353    1:40   0.00   16.7    93    3.2   345     4.7   829.0    0.00 
 353    1:50   0.00   16.7    93    3.0   312     5.0   829.1    0.00 
 353    2:00   0.00   17.0    94    2.7   306     6.5   829.2    0.00 
 353    2:10   0.00   18.0    94    2.5   334     3.8   829.2    0.00 
 353    2:20   0.00   17.5    92    2.6    13     3.7   829.1    0.00 
 353    2:30   0.00   17.1    93    3.1   346     4.0   829.1    0.00 
 353    2:40   0.00   16.5    92    2.1   356     3.9   829.2    0.00 
 353    2:50   0.00   17.1    93    1.5   346     2.6   829.2    0.00 
 353    3:00   0.00   17.1    93    2.8     3     4.0   829.0    0.00 
 353    3:10   0.00   16.8    92    2.2   342     4.1   829.2    0.00 
 353    3:20   0.00   16.5    92    2.5   296     3.8   829.2    0.00 
 353    3:30   0.00   16.4    92    2.0   304     3.6   829.0    0.00 
 353    3:40   0.00   16.2    92    1.8   331     3.7   828.9    0.00 
 353    3:50   0.00   16.1    92    2.7   311     4.4   828.8    0.00 
 353    4:00   0.00   16.7    92    3.4   323     5.2   828.9    0.00 
 353    4:10   0.00   17.2    92    2.9   353     5.6   828.9    0.00 
 353    4:20   0.00   18.6    92    3.3    40     5.3   828.8    0.00 
 353    4:30   0.00   19.7    92    3.5    43     5.6   828.8    0.00 
 353    4:40   0.00   20.1    91    3.9   300     7.5   829.0    0.00 
 353    4:50   0.00   20.2    91    3.0     5     5.1   828.9    0.00 
 353    5:00   0.00   20.3    91    3.7    38     5.3   828.9    0.00 
 353    5:10   0.00   20.5    92    1.9    43     5.6   829.0    0.00 
 353    5:20   0.00   21.0    92    1.7    38     2.9   829.0    0.00 
 353    5:30   0.00   21.1    90    1.1   139     3.1   828.9    0.00 
 353    5:40   0.00   20.5    91    2.4   316     3.9   829.0    0.00 
 353    5:50   0.00   20.2    91    2.2    28     3.7   829.0    0.00 
 353    6:00   0.00   19.9    92    2.5     3     3.7   829.1    0.00 
 353    6:10   0.00   20.6    92    1.9   344     4.1   829.2    0.00 
 353    6:20   0.00   20.6    91    3.3   342     4.7   829.2    0.00 
 353    6:30   0.00   20.3    92    4.3   320     6.4   829.3    0.00 
 353    6:40   0.00   20.1    92    2.6   319     5.2   829.5    0.00 
 353    6:50   0.00   20.2    92    2.4   290     4.7   829.4    0.00 
 353    7:00   0.00   20.1    92    3.2   290     4.9   829.5    0.00 
 353    7:10   0.01   20.8    93    2.0   308     3.8   829.5    0.00 
 353    7:20   0.01   21.4    92    1.0    55     3.2   829.5    0.00 
 353    7:30   0.02   21.5    92    1.2    52     3.8   829.5    0.00 
 353    7:40   0.02   22.2    93    1.3   308     4.1   829.4    0.00 
 353    7:50   0.03   22.8    93    3.3    65     4.4   829.2    0.00 
 353    8:00   0.05   22.6    92    2.8    13     4.7   829.1    0.00 
 353    8:10   0.06   23.1    92    2.8   341     4.5   829.2    0.00 
 353    8:20   0.07   23.9    91    2.9   339     4.5   829.3    0.00 
 353    8:30   0.07   25.0    90    1.4   354     2.5   829.2    0.00 
 353    8:40   0.06   25.1    90    2.2    67     3.3   829.1    0.00 
 353    8:50   0.08   25.3    90    0.9     2     2.2   829.1    0.00 
 353    9:00   0.02   26.6    88    1.2   301     2.3   829.3    0.00 
 353    9:10   0.00   29.1    81    0.9    70     2.9   829.4    0.00 
 353    9:20   0.00   30.4    78    1.6    97     3.1   829.3    0.00 
 353    9:30   0.00   31.6    76    1.6   154     2.7   829.3    0.00 
 353    9:40   0.00   32.3    74    1.1   157     3.1   829.4    0.00 
 353    9:50   0.36   34.4    68    1.4   124     3.1   829.1    0.00 
 353   10:00   0.16   35.0    66    1.7   215     3.9   828.9    0.00 
 353   10:10   0.20   33.9    68    2.3   261     4.5   829.0    0.00 
 353   10:20   0.04   34.2    68    0.5   222     1.5   828.8    0.00 
 353   10:30   0.41   37.0    61    0.6   306     2.9   828.6    0.00 
 353   10:40   0.46   37.5    60    2.5   264     5.6   828.4    0.00 
 353   10:50   0.41   37.5    61    4.2   276     6.9   828.2    0.00 
 353   11:00   0.27   37.4    62    3.4   262     6.1   828.0    0.00 
 353   11:10   0.42   39.2    59    3.9   233    12.8   827.7    0.00 
 353   11:20   0.13   43.8    48   12.0   192    18.9   827.4    0.00 
 353   11:30   0.00   43.6    48   13.9   186    18.5   827.1    0.00 
 353   11:40   0.00   42.9    49   14.9   186    19.4   826.8    0.00 
 353   11:50   0.38   42.2    50   16.5   194    20.8   826.8    0.00 
 353   12:00   0.29   43.3    50   14.0   189    20.5   826.7    0.00 
 353   12:10   0.00   43.8    48   14.3   179    18.6   826.6    0.00 

Return to Clover Valley graphs page.


Western Regional Climate Center,wrcc@dri.edu